Airfield :
LOGIN :

Register | Disclaimer

   EN    FR    IT 

 










Legend :    VFR   Marginal VFR   IFR   Intensive IFR   Very Intensive IFR
Visi :
Ceiling :
>= 8 km
>= 3000ft
5 to 8 km
1000 to 3000 ft
1500m to 5 km
500 to 1000 ft
800 to 1500m
200 to 500 ft
< 800m
< 200 ft
Symbols :   Thunderstorms  Fog  Heavy snow  Heavy precipitations  Wind > 20 kt
SIGMETs :     Misc.  Thunderstorms  Icing  Turbulence  Mountain Waves  Volcanic Ashes






- Airport Elevation : 1302 ft
- IATA code : GNB


LFLS - Grenoble / St. Geoirs

CURRENT METAR :
  • 021200Z AUTO VRB03KT 8000 BKN013 BKN022 OVC054 05/03 Q1016 BECMG FEW008 OVC016

EXPIRED METARs :
  • 021130Z AUTO VRB03KT 9000 BKN013 BKN021 OVC030 05/02 Q1016 BECMG FEW008 OVC016
  • 021100Z AUTO 00000KT 8000 OVC015 04/02 Q1016 TEMPO 4000 -RA OVC009
  • 021030Z AUTO VRB03KT 7000 BKN014 BKN019 OVC032 04/03 Q1017 TEMPO 4000 -RA BECMG FEW008 OVC016
  • 021000Z AUTO VRB02KT 5000 -RA BR OVC011 04/02 Q1017 TEMPO OVC009
  • 020930Z AUTO 26003KT 230V290 7000 BKN010 OVC015 04/02 Q1017 TEMPO 4000 -RA
  • 020900Z AUTO VRB03KT 6000 -RA BKN013 OVC018 04/03 Q1017 TEMPO OVC009

TAF AMD TAF LFLS
Valid from the 02 at 11:00 until the 03 at 09:00 UTC


021146Z 0211/0309 36004KT 9999 FEW008 OVC016
PROB40
TEMPO 0211/0221 4000 -RADZ BKN012 FEW050TCU
BECMG 0222/0301 FEW016 BKN100
PROB40
TEMPO 0222/0307 09010KT 0600 FG VV///
TEMPO 0307/0309 BKN007
ATIS : +33 4 76 65 55 89



MET'MAP, your aeronautical weather chart ! - Copyright ORBIFLY December 2007 - Disclaimer

ORBIFLY MET'MAP TEAM :

Programming & Development : Alexandra Zaïnal
Original concept : Baudouin d'Aumeries
Technical & hardware support : Manuel Goepfert
Assistance : Marc-Olivier Méhu




SOURCES & CREDITS :

   NOAA